Time;durP1;ratioP1;P1;durP2;ratioP2;P2;SDS_P1;SDS_P2;PMS_P1;PMS_P2;Temp;Humidity;BMP_temperature;BMP_pressure;BME280_temperature;BME280_humidity;BME280_pressure;Samples;Min_cycle;Max_cycle;Signal;HPM_P1;HPM_P2
2024/04/09 00:01:36;;;;;;;2.35;1.80;;;;;;;3.65;100.00;96808.53;7401904;19;19999;-58
2024/04/09 00:04:02;;;;;;;2.55;1.77;;;;;;;3.61;100.00;96807.69;7400095;19;19995;-56
2024/04/09 00:06:28;;;;;;;1.70;1.60;;;;;;;3.60;100.00;96805.09;7401714;19;20014;-57
2024/04/09 00:08:55;;;;;;;2.38;1.63;;;;;;;3.69;100.00;96801.59;7401957;19;20009;-61
2024/04/09 00:11:21;;;;;;;2.30;1.63;;;;;;;3.54;100.00;96795.66;7399174;19;19999;-60
2024/04/09 00:13:54;;;;;;;2.00;1.73;;;;;;;3.73;100.00;96800.72;7401418;19;20510;-57
2024/04/09 00:16:22;;;;;;;2.10;1.85;;;;;;;3.67;100.00;96797.28;7401376;19;20461;-62
2024/04/09 00:18:54;;;;;;;1.83;1.73;;;;;;;3.71;100.00;96803.31;7401271;19;20002;-60
2024/04/09 00:21:24;;;;;;;2.08;1.80;;;;;;;3.57;100.00;96794.75;7401206;19;20003;-56
2024/04/09 00:23:50;;;;;;;4.55;1.85;;;;;;;3.50;100.00;96791.38;7401147;19;20453;-58
2024/04/09 00:26:16;;;;;;;1.60;1.50;;;;;;;3.48;100.00;96791.38;7400945;19;20017;-59
2024/04/09 00:28:42;;;;;;;2.90;1.70;;;;;;;3.45;100.00;96786.22;7400943;19;20006;-60
2024/04/09 00:31:08;;;;;;;1.85;1.73;;;;;;;3.46;100.00;96787.09;7398679;19;20005;-62
2024/04/09 00:33:33;;;;;;;3.00;2.03;;;;;;;3.44;100.00;96784.50;7400749;19;20070;-56
2024/04/09 00:35:59;;;;;;;2.67;2.17;;;;;;;3.49;100.00;96785.31;7400686;19;20007;-55
2024/04/09 00:38:27;;;;;;;2.55;1.80;;;;;;;3.50;100.00;96781.91;7400719;19;19998;-59
2024/04/09 00:40:53;;;;;;;5.45;1.95;;;;;;;3.39;100.00;96779.34;7400562;19;20009;-60
2024/04/09 00:43:18;;;;;;;2.25;1.60;;;;;;;3.29;100.00;96770.78;7400401;19;19999;-61
2024/04/09 00:45:45;;;;;;;3.70;1.95;;;;;;;3.34;100.00;96770.75;7400380;19;19999;-57
2024/04/09 00:48:11;;;;;;;5.55;2.30;;;;;;;3.43;100.00;96769.00;7400338;19;20002;-60
2024/04/09 00:50:41;;;;;;;2.50;2.08;;;;;;;2.94;100.00;96776.09;7398547;19;20002;-59
2024/04/09 00:53:11;;;;;;;1.90;1.80;;;;;;;3.13;100.00;96771.75;7397411;19;20002;-60
2024/04/09 00:55:40;;;;;;;2.53;1.83;;;;;;;3.13;100.00;96774.31;7400075;19;20014;-56
2024/04/09 00:58:09;;;;;;;4.38;2.15;;;;;;;3.12;100.00;96773.47;7400164;19;20085;-57
2024/04/09 01:00:35;;;;;;;2.90;1.90;;;;;;;3.23;100.00;96769.97;7400415;19;20013;-57
2024/04/09 01:03:01;;;;;;;4.05;2.15;;;;;;;3.27;100.00;96769.06;7399343;19;20448;-60
2024/04/09 01:05:27;;;;;;;2.53;2.00;;;;;;;3.20;100.00;96759.63;7400337;19;20022;-57
2024/04/09 01:07:52;;;;;;;2.33;2.10;;;;;;;3.23;100.00;96769.97;7399663;19;20349;-58
2024/04/09 01:10:18;;;;;;;2.90;1.80;;;;;;;3.23;100.00;96768.25;7398350;19;19999;-57
2024/04/09 01:12:44;;;;;;;2.38;1.98;;;;;;;3.12;100.00;96757.06;7399706;19;20002;-59
2024/04/09 01:15:12;;;;;;;4.07;2.03;;;;;;;3.02;100.00;96757.13;7399433;19;20003;-56
2024/04/09 01:17:38;;;;;;;3.42;2.30;;;;;;;3.12;100.00;96754.50;7399658;19;20014;-60
2024/04/09 01:20:07;;;;;;;1.88;1.77;;;;;;;3.22;100.00;96758.75;7399629;19;20366;-64
2024/04/09 01:22:33;;;;;;;1.95;1.70;;;;;;;3.28;100.00;96766.47;7399105;19;20370;-56
2024/04/09 01:24:58;;;;;;;3.88;2.28;;;;;;;3.16;100.00;96763.94;7397694;19;20070;-58
2024/04/09 01:27:25;;;;;;;1.83;1.73;;;;;;;3.15;100.00;96760.53;7399005;19;19995;-59
2024/04/09 01:29:51;;;;;;;2.92;1.95;;;;;;;3.25;100.00;96758.72;7398066;19;19999;-57
2024/04/09 01:32:17;;;;;;;4.75;2.08;;;;;;;3.23;100.00;96760.50;7399335;19;20019;-61
2024/04/09 01:34:44;;;;;;;2.78;2.00;;;;;;;3.11;100.00;96757.94;7398793;19;19998;-61
2024/04/09 01:37:12;;;;;;;2.33;2.00;;;;;;;3.02;100.00;96759.72;7398647;19;20026;-57
2024/04/09 01:39:40;;;;;;;2.95;2.03;;;;;;;3.05;100.00;96756.25;7398983;19;20002;-59
2024/04/09 01:42:08;;;;;;;2.83;2.10;;;;;;;3.13;100.00;96758.81;7398442;19;20001;-57
2024/04/09 01:44:34;;;;;;;2.42;2.10;;;;;;;2.96;100.00;96761.47;7398442;19;19998;-60
2024/04/09 01:47:00;;;;;;;2.05;1.85;;;;;;;3.10;100.00;96757.09;7398357;19;20031;-53
2024/04/09 01:49:25;;;;;;;6.57;1.75;;;;;;;3.05;100.00;96752.81;7397913;19;19999;-54
2024/04/09 01:51:51;;;;;;;2.08;1.98;;;;;;;3.08;100.00;96757.97;7398158;19;19995;-57
2024/04/09 01:54:17;;;;;;;2.95;1.80;;;;;;;3.06;100.00;96750.22;7398249;19;20001;-63
2024/04/09 01:56:42;;;;;;;3.15;1.92;;;;;;;3.08;100.00;96752.78;7398318;19;19999;-61
2024/04/09 01:59:08;;;;;;;3.17;2.13;;;;;;;3.03;100.00;96756.25;7397879;19;19991;-59
2024/04/09 02:01:35;;;;;;;4.03;2.30;;;;;;;3.00;100.00;96758.88;7397815;19;20019;-59
2024/04/09 02:04:01;;;;;;;2.70;2.30;;;;;;;2.96;100.00;96757.16;7395860;19;20417;-57
2024/04/09 02:06:28;;;;;;;3.83;2.20;;;;;;;3.04;100.00;96757.09;7398036;19;20010;-59
2024/04/09 02:08:54;;;;;;;3.95;1.70;;;;;;;2.95;100.00;96754.59;7397586;19;19999;-61
2024/04/09 02:11:22;;;;;;;3.15;2.10;;;;;;;2.86;100.00;96751.16;7395735;19;20010;-62
2024/04/09 02:13:48;;;;;;;2.67;1.95;;;;;;;2.92;100.00;96752.00;7397912;19;20002;-64
2024/04/09 02:16:16;;;;;;;2.67;2.25;;;;;;;2.96;100.00;96751.13;7397344;19;20070;-58
2024/04/09 02:18:45;;;;;;;3.17;2.17;;;;;;;2.93;100.00;96754.59;7397299;19;20010;-57
2024/04/09 02:21:11;;;;;;;3.65;2.13;;;;;;;3.03;100.00;96755.41;7397206;19;19999;-60
2024/04/09 02:23:37;;;;;;;2.45;2.25;;;;;;;2.95;100.00;96758.00;7397589;19;20029;-61
2024/04/09 02:26:03;;;;;;;2.20;2.00;;;;;;;2.93;100.00;96758.88;7397111;19;20475;-61
2024/04/09 02:28:29;;;;;;;4.70;2.28;;;;;;;2.92;100.00;96755.44;7397460;19;20002;-63
2024/04/09 02:30:56;;;;;;;2.20;2.00;;;;;;;2.77;100.00;96754.63;7395798;19;20019;-54
2024/04/09 02:33:22;;;;;;;2.30;2.08;;;;;;;2.83;100.00;96758.06;7396971;19;20002;-55
2024/04/09 02:36:01;;;;;;;2.20;2.00;;;;;;;2.78;100.00;96756.38;7397118;19;20001;-61
2024/04/09 02:38:29;;;;;;;2.30;2.20;;;;;;;2.72;100.00;96758.09;7396753;19;20534;-59
2024/04/09 02:40:54;;;;;;;3.05;2.00;;;;;;;2.64;100.00;96751.25;7396634;19;20002;-62
2024/04/09 02:43:21;;;;;;;2.30;1.83;;;;;;;2.77;100.00;96754.63;7396457;19;19998;-55
2024/04/09 02:45:48;;;;;;;4.10;2.40;;;;;;;2.77;100.00;96754.63;7396384;19;20031;-59
2024/04/09 02:48:15;;;;;;;4.97;2.05;;;;;;;2.73;100.00;96760.69;7396793;19;19999;-57
2024/04/09 02:50:42;;;;;;;2.72;2.20;;;;;;;2.64;100.00;96755.53;7395079;19;20015;-59
2024/04/09 02:53:09;;;;;;;3.15;2.80;;;;;;;2.64;100.00;96751.25;7395097;19;20389;-60
2024/04/09 02:55:36;;;;;;;4.80;2.30;;;;;;;2.67;100.00;96755.53;7396084;19;20005;-55
2024/04/09 02:58:03;;;;;;;4.88;2.30;;;;;;;2.61;100.00;96752.97;7396436;19;20353;-61
2024/04/09 03:00:30;;;;;;;3.78;2.40;;;;;;;2.70;100.00;96755.53;7395928;19;20058;-52
2024/04/09 03:02:58;;;;;;;4.40;2.10;;;;;;;2.55;100.00;96758.13;7395768;19;20467;-59
2024/04/09 03:05:31;;;;;;;3.60;2.30;;;;;;;2.59;100.00;96763.28;7395931;19;20062;-57
2024/04/09 03:07:57;;;;;;;2.40;2.20;;;;;;;2.56;100.00;96765.03;7395838;19;20010;-57
2024/04/09 03:10:23;;;;;;;5.22;2.47;;;;;;;2.58;100.00;96758.13;7394675;19;19995;-54
2024/04/09 03:12:49;;;;;;;2.78;2.00;;;;;;;2.46;100.00;96761.59;7395755;19;20893;-58
2024/04/09 03:15:15;;;;;;;2.53;2.33;;;;;;;2.39;100.00;96751.31;7393511;19;19994;-58
2024/04/09 03:17:43;;;;;;;2.72;2.25;;;;;;;2.40;100.00;96754.72;7395894;19;20010;-58
2024/04/09 03:20:10;;;;;;;5.30;2.55;;;;;;;2.50;100.00;96763.34;7395389;19;20536;-58
2024/04/09 03:22:37;;;;;;;2.00;1.90;;;;;;;2.47;100.00;96763.34;7395364;19;20058;-58
2024/04/09 03:25:03;;;;;;;4.35;2.20;;;;;;;2.42;100.00;96759.91;7395194;19;20020;-61
2024/04/09 03:27:28;;;;;;;2.33;2.10;;;;;;;2.51;100.00;96765.06;7395699;19;20007;-59
2024/04/09 03:29:54;;;;;;;2.60;2.13;;;;;;;2.60;100.00;96764.16;7394839;19;20507;-57
2024/04/09 03:32:20;;;;;;;2.85;2.17;;;;;;;2.59;100.00;96760.72;7395009;19;20511;-54
2024/04/09 03:34:47;;;;;;;3.85;2.53;;;;;;;2.70;100.00;96760.69;7394980;19;20009;-59
2024/04/09 03:37:12;;;;;;;3.83;2.40;;;;;;;2.59;100.00;96762.47;7395066;19;20006;-58
2024/04/09 03:39:40;;;;;;;3.00;2.20;;;;;;;2.48;100.00;96760.75;7395178;19;20015;-59
2024/04/09 03:42:06;;;;;;;2.85;2.58;;;;;;;2.48;100.00;96767.63;7395084;19;20028;-57
2024/04/09 03:44:32;;;;;;;3.58;2.72;;;;;;;2.58;100.00;96771.03;7394913;19;20449;-61
2024/04/09 03:47:01;;;;;;;2.67;2.22;;;;;;;2.63;100.00;96772.78;7393356;19;20015;-55
2024/04/09 03:49:26;;;;;;;3.50;2.08;;;;;;;2.59;100.00;96780.53;7394295;19;20002;-56
2024/04/09 03:51:52;;;;;;;2.15;1.98;;;;;;;2.52;100.00;96769.34;7394568;19;20002;-60
2024/04/09 03:54:18;;;;;;;3.42;2.47;;;;;;;2.46;100.00;96783.13;7394424;19;20002;-56
2024/04/09 03:56:43;;;;;;;3.20;2.60;;;;;;;2.50;100.00;96782.25;7394422;19;20006;-56
2024/04/09 03:59:09;;;;;;;3.30;2.50;;;;;;;2.65;100.00;96785.69;7394303;19;20016;-56
2024/04/09 04:01:34;;;;;;;3.97;2.80;;;;;;;2.76;100.00;96783.94;7394239;19;19998;-61
2024/04/09 04:04:00;;;;;;;5.32;2.45;;;;;;;2.78;100.00;96771.88;7393235;19;20106;-60
2024/04/09 04:06:25;;;;;;;7.50;2.85;;;;;;;2.81;100.00;96780.47;7392708;19;20003;-61
2024/04/09 04:08:51;;;;;;;2.50;2.30;;;;;;;2.87;100.00;96785.63;7394136;19;19995;-58
2024/04/09 04:11:16;;;;;;;2.33;2.13;;;;;;;2.87;100.00;96781.31;7392215;19;19998;-56
2024/04/09 04:13:42;;;;;;;3.25;1.98;;;;;;;2.83;100.00;96782.16;7392478;19;19998;-58
2024/04/09 04:16:15;;;;;;;3.72;2.28;;;;;;;3.00;100.00;96786.41;7394057;19;19999;-57
2024/04/09 04:18:48;;;;;;;3.65;2.33;;;;;;;3.05;100.00;96787.28;7394215;19;19998;-52
2024/04/09 04:21:19;;;;;;;2.53;2.10;;;;;;;3.19;100.00;96781.19;7393887;19;19995;-55
2024/04/09 04:23:46;;;;;;;2.72;2.42;;;;;;;3.27;100.00;96789.75;7393800;19;20058;-61
2024/04/09 04:26:19;;;;;;;3.22;2.30;;;;;;;3.95;100.00;96788.50;7394381;19;20018;-59
2024/04/09 04:28:46;;;;;;;2.65;2.45;;;;;;;4.39;100.00;96794.16;7401054;19;20011;-56
2024/04/09 04:31:14;;;;;;;3.42;2.10;;;;;;;5.86;94.90;96796.72;7398722;19;20002;-57
2024/04/09 04:33:40;;;;;;;4.13;2.10;;;;;;;6.67;84.64;96798.91;7400815;19;20001;-61
2024/04/09 04:36:07;;;;;;;3.17;2.20;;;;;;;7.11;81.59;96803.28;7400826;19;19999;-54
2024/04/09 04:38:33;;;;;;;3.38;1.88;;;;;;;8.52;76.31;96810.56;7400795;19;20080;-57
2024/04/09 04:40:59;;;;;;;3.05;2.00;;;;;;;9.03;72.84;96805.81;7400728;19;19999;-56
2024/04/09 04:43:25;;;;;;;2.35;1.77;;;;;;;10.02;68.78;96812.47;7400553;19;20090;-61
2024/04/09 04:45:56;;;;;;;3.47;1.80;;;;;;;10.16;67.89;96816.41;7400397;19;20013;-60
2024/04/09 04:48:22;;;;;;;2.92;1.67;;;;;;;10.67;65.65;96817.41;7400798;19;20010;-62
2024/04/09 04:50:49;;;;;;;2.97;1.50;;;;;;;11.61;62.81;96821.94;7398564;19;20003;-62
2024/04/09 04:53:15;;;;;;;2.42;1.80;;;;;;;13.06;58.09;96833.72;7400128;19;20003;-57
2024/04/09 04:55:41;;;;;;;4.32;1.60;;;;;;;14.21;53.92;96836.44;7400148;19;19999;-61
2024/04/09 04:58:07;;;;;;;2.70;1.48;;;;;;;14.95;51.00;96836.38;7400268;19;20483;-57
2024/04/09 05:00:35;;;;;;;1.73;1.50;;;;;;;15.10;50.61;96841.78;7400404;19;20003;-59
2024/04/09 05:03:01;;;;;;;4.70;1.58;;;;;;;14.19;53.34;96834.81;7399331;19;20017;-59
2024/04/09 05:05:28;;;;;;;1.50;1.40;;;;;;;14.36;53.53;96841.91;7400250;19;20018;-62
2024/04/09 05:07:54;;;;;;;1.92;1.42;;;;;;;15.01;52.80;96827.31;7399714;19;20007;-61
2024/04/09 05:10:20;;;;;;;2.47;1.50;;;;;;;14.24;55.17;96838.91;7398572;19;20091;-61
2024/04/09 05:12:47;;;;;;;1.45;1.35;;;;;;;15.60;51.95;96847.97;7399598;19;19999;-55
2024/04/09 05:15:13;;;;;;;2.17;1.35;;;;;;;15.74;52.99;96841.94;7399815;19;20338;-59
2024/04/09 05:17:39;;;;;;;2.13;1.40;;;;;;;16.25;52.35;96846.25;7399595;19;19998;-56
2024/04/09 05:20:14;;;;;;;4.47;1.73;;;;;;;18.59;45.46;96854.38;7399739;19;20366;-62
2024/04/09 05:22:47;;;;;;;3.75;1.50;;;;;;;20.29;42.31;96850.81;7399411;19;19998;-61
2024/04/09 05:25:15;;;;;;;6.03;1.35;;;;;;;19.88;43.40;96844.84;7399270;19;19991;-62
2024/04/09 05:27:41;;;;;;;2.35;1.65;;;;;;;21.17;40.58;96851.44;7399126;19;20002;-58
2024/04/09 05:30:11;;;;;;;3.63;1.60;;;;;;;21.56;38.84;96843.16;7398091;19;20002;-60
2024/04/09 05:32:43;;;;;;;1.58;1.42;;;;;;;21.63;38.70;96843.50;7399459;19;20035;-62
2024/04/09 05:35:09;;;;;;;1.63;1.17;;;;;;;21.79;38.50;96834.34;7399331;19;20033;-54
2024/04/09 05:37:35;;;;;;;3.17;1.17;;;;;;;23.27;36.48;96841.00;7398464;19;19998;-62
2024/04/09 05:40:02;;;;;;;2.88;1.35;;;;;;;22.92;37.62;96835.03;7397209;19;20081;-60
2024/04/09 05:42:28;;;;;;;2.35;1.60;;;;;;;23.62;35.60;96836.31;7398553;19;20219;-59
2024/04/09 05:44:53;;;;;;;3.63;1.20;;;;;;;23.30;37.05;96832.75;7398952;19;20030;-57
2024/04/09 05:47:19;;;;;;;4.03;1.40;;;;;;;24.43;34.80;96828.41;7398377;19;20002;-58
2024/04/09 05:49:46;;;;;;;2.60;1.27;;;;;;;24.29;34.25;96840.38;7397849;19;20006;-56
2024/04/09 05:52:12;;;;;;;1.48;1.27;;;;;;;24.04;35.53;96831.81;7398711;19;20007;-59
2024/04/09 05:54:44;;;;;;;2.03;1.20;;;;;;;24.43;33.27;96839.09;7398149;19;20347;-60
2024/04/09 05:57:10;;;;;;;3.85;1.70;;;;;;;25.79;32.32;96843.63;7398033;19;20489;-60
2024/04/09 05:59:36;;;;;;;2.55;1.30;;;;;;;26.80;29.89;96849.13;7398122;19;19998;-54
2024/04/09 06:02:02;;;;;;;2.80;1.55;;;;;;;24.62;34.56;96830.25;7398275;19;20013;-52
2024/04/09 06:04:28;;;;;;;2.75;1.48;;;;;;;24.69;33.30;96835.91;7395954;19;20341;-56
2024/04/09 06:06:54;;;;;;;2.80;1.40;;;;;;;25.32;32.32;96847.13;7397827;19;20013;-55
2024/04/09 06:09:19;;;;;;;1.70;1.50;;;;;;;25.57;32.94;96842.13;7397738;19;20006;-60
2024/04/09 06:11:45;;;;;;;1.90;1.52;;;;;;;24.20;35.55;96831.34;7398174;19;20416;-59
2024/04/09 06:14:11;;;;;;;1.30;1.20;;;;;;;22.81;37.32;96825.25;7397546;19;19998;-56
2024/04/09 06:16:36;;;;;;;2.33;1.58;;;;;;;21.46;39.02;96819.06;7397437;19;20469;-57
2024/04/09 06:19:02;;;;;;;3.10;1.75;;;;;;;20.54;39.26;96815.31;7397432;19;20080;-60
2024/04/09 06:21:28;;;;;;;2.08;1.30;;;;;;;19.69;40.17;96809.00;7397300;19;20003;-58
2024/04/09 06:23:53;;;;;;;1.30;1.20;;;;;;;20.13;42.12;96809.44;7397175;19;20330;-63
2024/04/09 06:26:20;;;;;;;1.42;1.33;;;;;;;19.72;41.57;96805.28;7397157;19;20074;-58
2024/04/09 06:28:46;;;;;;;3.63;1.20;;;;;;;19.55;42.46;96800.22;7397065;19;19999;-52
2024/04/09 06:31:12;;;;;;;2.83;1.42;;;;;;;19.18;42.78;96802.78;7395411;19;20006;-55
2024/04/09 06:33:38;;;;;;;6.30;1.50;;;;;;;20.24;41.35;96802.50;7396994;19;20021;-57
2024/04/09 06:36:04;;;;;;;4.22;1.48;;;;;;;20.41;39.75;96810.06;7396804;19;20469;-56
2024/04/09 06:38:30;;;;;;;1.52;1.00;;;;;;;20.37;39.20;96818.34;7396722;19;19998;-57
2024/04/09 06:40:56;;;;;;;1.73;1.13;;;;;;;19.86;38.40;96818.41;7396585;19;20035;-56
2024/04/09 06:43:22;;;;;;;3.83;1.42;;;;;;;20.61;36.43;96823.66;7396930;19;20015;-63
2024/04/09 06:45:48;;;;;;;1.35;1.25;;;;;;;20.88;37.23;96821.69;7396560;19;20395;-54
2024/04/09 06:48:14;;;;;;;5.50;1.70;;;;;;;20.92;39.36;96821.38;7396360;19;20032;-54
2024/04/09 06:50:41;;;;;;;2.40;1.45;;;;;;;21.15;37.62;96826.78;7395263;19;19998;-57
2024/04/09 06:53:06;;;;;;;2.25;1.73;;;;;;;20.31;39.39;96827.63;7396166;19;20354;-53
2024/04/09 06:55:32;;;;;;;5.57;1.40;;;;;;;21.23;37.73;96823.53;7396090;19;20014;-56
2024/04/09 06:57:57;;;;;;;2.38;1.35;;;;;;;21.46;33.21;96834.16;7396042;19;20011;-54
2024/04/09 07:00:23;;;;;;;3.17;1.35;;;;;;;21.10;36.03;96834.25;7395939;19;20006;-58
2024/04/09 07:02:49;;;;;;;1.42;1.10;;;;;;;21.86;30.91;96838.22;7395996;19;20022;-54
2024/04/09 07:05:15;;;;;;;2.42;1.38;;;;;;;22.14;31.07;96836.00;7394401;19;20006;-54
2024/04/09 07:07:41;;;;;;;1.70;1.40;;;;;;;21.58;30.15;96832.38;7395848;19;20003;-58
2024/04/09 07:10:07;;;;;;;2.47;1.20;;;;;;;22.21;31.24;96828.34;7395435;19;20038;-58
2024/04/09 07:12:32;;;;;;;4.35;1.27;;;;;;;22.73;29.45;96833.06;7395621;19;20453;-60
2024/04/09 07:15:00;;;;;;;1.75;1.08;;;;;;;21.90;30.10;96826.34;7395606;19;20463;-63
2024/04/09 07:17:25;;;;;;;1.55;0.93;;;;;;;21.13;31.85;96830.53;7395481;19;20054;-55
2024/04/09 07:19:55;;;;;;;1.60;1.10;;;;;;;21.39;32.75;96814.34;7395865;19;20020;-60
2024/04/09 07:22:21;;;;;;;2.05;1.38;;;;;;;21.31;31.37;96812.31;7395489;19;20507;-55
2024/04/09 07:24:47;;;;;;;5.07;1.20;;;;;;;21.77;31.41;96820.31;7395283;19;20006;-57
2024/04/09 07:27:12;;;;;;;1.20;1.00;;;;;;;21.21;30.65;96810.34;7395194;19;20019;-56
2024/04/09 07:29:38;;;;;;;1.63;1.08;;;;;;;21.76;31.39;96814.13;7395139;19;20046;-56
2024/04/09 07:32:07;;;;;;;4.18;1.38;;;;;;;21.75;30.73;96808.91;7395092;19;19999;-59
2024/04/09 07:34:34;;;;;;;2.15;1.15;;;;;;;21.96;30.60;96817.03;7395395;19;20335;-53
2024/04/09 07:37:00;;;;;;;1.35;1.00;;;;;;;22.18;30.48;96813.47;7394989;19;19999;-53
2024/04/09 07:39:26;;;;;;;3.72;1.40;;;;;;;22.84;29.65;96811.69;7394945;19;20448;-56
2024/04/09 07:41:51;;;;;;;1.52;1.13;;;;;;;21.75;29.53;96812.44;7395235;19;20011;-60
2024/04/09 07:44:18;;;;;;;1.60;1.13;;;;;;;22.08;30.29;96804.53;7393558;19;20554;-54
2024/04/09 07:46:48;;;;;;;1.75;1.33;;;;;;;22.82;29.64;96804.78;7395116;19;20002;-58
2024/04/09 07:49:16;;;;;;;2.70;1.13;;;;;;;22.77;30.09;96809.66;7394677;19;20008;-54
2024/04/09 07:51:42;;;;;;;2.50;1.40;;;;;;;22.48;30.67;96805.75;7392663;19;19999;-56
2024/04/09 07:54:08;;;;;;;4.28;1.27;;;;;;;19.84;33.99;96804.41;7394502;19;20485;-57
2024/04/09 07:56:34;;;;;;;1.70;1.20;;;;;;;22.10;32.32;96810.59;7394498;19;20004;-56
2024/04/09 07:59:00;;;;;;;2.63;1.40;;;;;;;22.56;28.78;96813.09;7394352;19;19999;-58
2024/04/09 08:01:26;;;;;;;1.65;1.38;;;;;;;22.18;29.96;96804.63;7395640;19;20002;-59
2024/04/09 08:03:51;;;;;;;2.33;1.40;;;;;;;22.11;31.74;96801.63;7401056;19;19999;-56
2024/04/09 08:06:17;;;;;;;3.08;1.40;;;;;;;22.56;29.30;96810.44;7402379;19;20022;-60
2024/04/09 08:08:43;;;;;;;1.85;1.55;;;;;;;22.91;28.19;96800.50;7401739;19;20359;-60
2024/04/09 08:11:10;;;;;;;5.80;1.27;;;;;;;22.89;29.84;96795.31;7399456;19;20020;-55
2024/04/09 08:13:36;;;;;;;3.78;1.20;;;;;;;21.29;29.20;96803.59;7401575;19;20514;-55
2024/04/09 08:16:02;;;;;;;3.22;1.40;;;;;;;22.69;28.59;96789.81;7401418;19;20009;-57
2024/04/09 08:18:28;;;;;;;3.15;1.30;;;;;;;21.49;30.67;96793.19;7401957;19;20413;-55
2024/04/09 08:20:54;;;;;;;2.53;1.45;;;;;;;20.97;31.93;96786.47;7401386;19;20010;-59
2024/04/09 08:23:19;;;;;;;5.10;1.38;;;;;;;22.26;29.79;96783.53;7401239;19;20337;-58
2024/04/09 08:25:45;;;;;;;4.88;1.63;;;;;;;21.40;30.68;96786.78;7401175;19;19995;-56
2024/04/09 08:28:11;;;;;;;1.92;1.35;;;;;;;22.09;30.41;96790.25;7401067;19;20023;-57
2024/04/09 08:30:37;;;;;;;3.05;1.67;;;;;;;22.19;31.68;96777.03;7399895;19;20034;-53
2024/04/09 08:33:05;;;;;;;4.45;1.75;;;;;;;21.37;31.68;96789.69;7400900;19;20400;-61
2024/04/09 08:35:31;;;;;;;4.82;1.45;;;;;;;19.42;32.37;96776.34;7401281;19;20006;-53
2024/04/09 08:37:56;;;;;;;3.30;1.40;;;;;;;19.67;33.70;96768.44;7400617;19;20465;-51
2024/04/09 08:40:22;;;;;;;2.70;1.38;;;;;;;20.41;32.90;96767.56;7400631;19;20019;-59
2024/04/09 08:42:54;;;;;;;3.63;1.70;;;;;;;21.87;32.75;96759.19;7400574;19;20532;-60
2024/04/09 08:45:19;;;;;;;3.15;1.50;;;;;;;21.78;32.03;96763.44;7400660;19;19999;-56
2024/04/09 08:47:47;;;;;;;2.28;1.50;;;;;;;22.64;31.58;96768.06;7400402;19;20014;-55
2024/04/09 08:50:13;;;;;;;3.33;1.25;;;;;;;21.23;30.83;96767.66;7399739;19;20349;-58
2024/04/09 08:52:39;;;;;;;4.18;1.50;;;;;;;21.41;32.52;96759.22;7400244;19;19995;-54
2024/04/09 08:55:09;;;;;;;2.95;1.73;;;;;;;22.45;32.01;96756.22;7400297;19;19999;-59
2024/04/09 08:57:35;;;;;;;1.60;1.27;;;;;;;22.17;30.99;96745.19;7400637;19;20003;-58
2024/04/09 09:00:04;;;;;;;4.35;1.42;;;;;;;21.70;31.87;96754.22;7400236;19;20005;-57
2024/04/09 09:02:30;;;;;;;5.53;1.17;;;;;;;21.85;31.94;96756.63;7400297;19;20015;-55
2024/04/09 09:04:56;;;;;;;2.10;1.42;;;;;;;21.87;28.73;96756.50;7398252;19;20013;-57
2024/04/09 09:07:22;;;;;;;2.65;1.50;;;;;;;21.87;32.09;96741.41;7399776;19;20015;-55
2024/04/09 09:09:48;;;;;;;5.13;1.50;;;;;;;22.31;30.82;96744.03;7399238;19;20027;-56
2024/04/09 09:12:15;;;;;;;3.88;1.33;;;;;;;22.64;29.94;96751.19;7399992;19;20030;-62
2024/04/09 09:14:55;;;;;;;3.25;1.33;;;;;;;22.36;30.58;96742.81;7397036;19;20003;-58
2024/04/09 09:17:21;;;;;;;2.75;1.27;;;;;;;22.86;29.38;96734.22;7399551;19;19999;-58
2024/04/09 09:19:57;;;;;;;2.80;1.60;;;;;;;21.33;30.91;96743.84;7399848;19;20014;-60
2024/04/09 09:22:23;;;;;;;1.80;1.20;;;;;;;21.81;30.45;96739.22;7399384;19;20006;-59
2024/04/09 09:24:57;;;;;;;1.85;1.23;;;;;;;22.89;30.60;96733.97;7399221;19;20002;-53
2024/04/09 09:27:22;;;;;;;2.70;1.50;;;;;;;21.84;30.94;96737.19;7399114;19;20394;-58
2024/04/09 09:29:54;;;;;;;3.28;1.80;;;;;;;19.49;32.56;96736.97;7398568;19;20011;-61
2024/04/09 09:32:21;;;;;;;1.65;1.38;;;;;;;20.03;32.55;96726.97;7399121;19;20019;-57
2024/04/09 09:34:48;;;;;;;3.03;1.58;;;;;;;19.78;32.23;96725.22;7399338;19;20343;-54
2024/04/09 09:37:14;;;;;;;3.60;1.75;;;;;;;20.77;34.28;96719.72;7398707;19;19998;-55
2024/04/09 09:39:41;;;;;;;6.22;1.90;;;;;;;22.05;30.94;96728.41;7399179;19;20352;-52
2024/04/09 09:42:10;;;;;;;2.88;1.83;;;;;;;22.50;30.48;96723.84;7398842;19;19991;-57
2024/04/09 09:44:37;;;;;;;3.33;1.90;;;;;;;21.51;30.47;96728.25;7398657;19;20007;-59
2024/04/09 09:47:04;;;;;;;7.38;2.10;;;;;;;22.11;31.61;96727.06;7398551;19;20498;-55
2024/04/09 09:49:30;;;;;;;3.30;1.63;;;;;;;22.08;32.27;96717.50;7398339;19;20006;-53
2024/04/09 09:51:56;;;;;;;3.83;1.63;;;;;;;22.25;33.31;96717.94;7398369;19;19999;-55
2024/04/09 09:54:25;;;;;;;4.22;1.85;;;;;;;22.36;32.24;96717.00;7398393;19;20366;-55
2024/04/09 09:57:10;;;;;;;3.00;1.80;;;;;;;21.86;32.31;96718.41;7398196;19;19999;-60
2024/04/09 10:00:01;;;;;;;4.50;1.98;;;;;;;22.45;32.01;96720.72;7398682;19;20003;-55
2024/04/09 10:02:29;;;;;;;4.38;1.80;;;;;;;22.19;32.45;96718.44;7397641;19;20014;-56
2024/04/09 10:04:55;;;;;;;3.97;2.15;;;;;;;21.68;32.11;96713.59;7396551;19;20025;-57
2024/04/09 10:07:23;;;;;;;2.85;2.00;;;;;;;22.12;33.05;96715.41;7397799;19;20007;-58
2024/04/09 10:09:53;;;;;;;3.25;2.15;;;;;;;21.44;34.15;96703.09;7397267;19;19999;-54
2024/04/09 10:12:30;;;;;;;3.80;2.55;;;;;;;21.20;32.86;96702.25;7397708;19;20066;-54
2024/04/09 10:15:03;;;;;;;2.72;1.98;;;;;;;19.79;32.59;96690.63;7397672;19;20041;-58
2024/04/09 10:17:52;;;;;;;4.95;2.38;;;;;;;22.01;33.30;96692.34;7397480;19;20070;-55
2024/04/09 10:20:37;;;;;;;2.78;2.20;;;;;;;22.56;32.93;96703.84;7397494;19;20003;-57
2024/04/09 10:23:05;;;;;;;6.05;2.00;;;;;;;22.02;30.39;96699.34;7397427;19;20067;-55
2024/04/09 10:25:42;;;;;;;2.97;1.90;;;;;;;21.94;33.81;96696.47;7396865;19;20011;-58
2024/04/09 10:28:09;;;;;;;3.60;2.08;;;;;;;22.10;32.60;96696.06;7397596;19;20427;-55
2024/04/09 10:30:39;;;;;;;3.65;2.05;;;;;;;21.52;32.00;96687.34;7396118;19;20011;-54
2024/04/09 10:33:07;;;;;;;3.92;2.33;;;;;;;22.17;32.50;96683.94;7397071;19;20031;-57
2024/04/09 10:35:33;;;;;;;5.65;2.30;;;;;;;22.65;32.29;96679.09;7396813;19;19999;-58
2024/04/09 10:38:05;;;;;;;3.38;2.20;;;;;;;22.20;33.14;96678.34;7397165;19;20337;-57
2024/04/09 10:40:35;;;;;;;4.20;2.17;;;;;;;19.98;32.23;96678.63;7396879;19;19994;-57
2024/04/09 10:43:02;;;;;;;7.20;2.72;;;;;;;20.81;32.34;96677.81;7397176;19;19999;-59
2024/04/09 10:45:29;;;;;;;3.70;2.35;;;;;;;21.23;31.66;96679.91;7396574;19;20031;-57
2024/04/09 10:47:57;;;;;;;4.65;2.20;;;;;;;20.98;31.80;96681.00;7396496;19;20074;-54
2024/04/09 10:50:23;;;;;;;4.18;2.20;;;;;;;21.61;32.56;96669.78;7395638;19;19998;-57
2024/04/09 10:52:48;;;;;;;4.30;1.92;;;;;;;22.21;31.34;96666.72;7396329;19;20000;-59
2024/04/09 10:55:16;;;;;;;5.28;2.22;;;;;;;22.36;29.75;96660.25;7396347;19;20031;-56
2024/04/09 10:57:44;;;;;;;2.97;2.17;;;;;;;20.57;31.77;96657.47;7396163;19;20339;-55
2024/04/09 11:00:11;;;;;;;4.72;1.85;;;;;;;21.36;30.82;96662.94;7396122;19;20058;-56
2024/04/09 11:02:41;;;;;;;3.45;2.33;;;;;;;20.05;31.71;96663.97;7396033;19;20019;-55
2024/04/09 11:05:10;;;;;;;4.90;2.65;;;;;;;21.18;32.03;96659.00;7395041;19;20074;-54
2024/04/09 11:07:47;;;;;;;5.78;2.10;;;;;;;21.71;33.67;96662.75;7395917;19;20469;-55
2024/04/09 11:10:17;;;;;;;6.13;2.42;;;;;;;21.10;36.64;96652.59;7395268;19;20013;-56
2024/04/09 11:12:51;;;;;;;3.55;2.08;;;;;;;20.78;31.15;96651.47;7396189;19;20044;-52
2024/04/09 11:15:18;;;;;;;2.25;1.85;;;;;;;21.91;31.63;96647.00;7395971;19;20010;-57
2024/04/09 11:17:44;;;;;;;3.25;2.00;;;;;;;20.96;31.68;96650.03;7395489;19;19998;-54
2024/04/09 11:20:14;;;;;;;4.95;1.90;;;;;;;21.83;30.89;96644.94;7395513;19;20844;-59
2024/04/09 11:22:43;;;;;;;3.45;1.67;;;;;;;20.67;31.40;96649.63;7395539;19;20511;-59
2024/04/09 11:25:13;;;;;;;5.43;1.80;;;;;;;20.49;32.16;96638.63;7395309;19;20003;-58
2024/04/09 11:27:43;;;;;;;2.15;1.95;;;;;;;21.05;31.54;96632.53;7395690;19;20006;-53
2024/04/09 11:30:21;;;;;;;3.25;2.05;;;;;;;20.25;32.33;96640.38;7394650;19;20002;-58
2024/04/09 11:32:46;;;;;;;5.72;2.47;;;;;;;21.03;31.61;96629.16;7395295;19;20015;-54
2024/04/09 11:35:20;;;;;;;2.83;1.92;;;;;;;20.65;31.54;96631.16;7395060;19;20031;-57